Adam, Oman
Current Conditions -  °F | °C
As of 11:52 AM on Saturday 20 Dec 2014 (Local Time) from EQMN Reporting Station
Scattered Clouds Scattered Clouds  
Wind Chill: 79°   Ceiling: Unl
Heat Index: 80°   Visibility: 6mi
Dew Point: 57°   Wind: 6mph
Humidity: 47%   Direction: 70°ENE
Pressure: 30.12"   Gusts: NA
Location:  22.38°N, 57.52°E
Report Text: EQMN 200752Z AUTO 07005KT 9999 SCT039 26/14 Q1020
Loading
Personal Weather Stations






























Interactive Weather Map New forecast layout! Learn more

10-Day Weather Forecast

Advertisements
Track Severe Weather on mobile